createdAt,value
2019-01-08T00:01:13.243Z,97418.13
2019-01-08T00:03:19.411Z,97417.29
2019-01-08T00:05:25.896Z,97430.45
2019-01-08T00:07:32.568Z,97439.44
2019-01-08T00:09:39.248Z,97427.52
2019-01-08T00:11:45.724Z,97431.91
2019-01-08T00:13:52.638Z,97433.53
2019-01-08T00:15:59.144Z,97417.01
2019-01-08T00:18:05.597Z,97404.84
2019-01-08T00:20:12.015Z,97400.61
2019-01-08T00:22:18.368Z,97402.37
2019-01-08T00:24:24.604Z,97403.31
2019-01-08T00:26:31.275Z,97383.77
2019-01-08T00:28:43.138Z,97389.15
2019-01-08T00:30:46.069Z,97370.47
2019-01-08T00:32:52.672Z,97368.79
2019-01-08T00:35:00.024Z,97365.41
2019-01-08T00:37:06.403Z,97366.40
2019-01-08T00:39:12.614Z,97362.33
2019-01-08T00:41:18.998Z,97362.38
2019-01-08T00:43:25.516Z,97369.95
2019-01-08T00:45:31.873Z,97364.00
2019-01-08T00:47:38.483Z,97361.86
2019-01-08T00:49:44.790Z,97367.61
2019-01-08T00:51:51.818Z,97368.39
2019-01-08T00:53:58.538Z,97367.92
2019-01-08T00:56:05.273Z,97363.28
2019-01-08T00:58:11.952Z,97353.39
2019-01-08T01:00:18.581Z,97352.39
2019-01-08T01:02:25.026Z,97346.69
2019-01-08T01:04:31.679Z,97337.29
2019-01-08T01:06:38.614Z,97334.98
2019-01-08T01:08:45.535Z,97326.39
2019-01-08T01:10:52.138Z,97320.66
2019-01-08T01:12:58.968Z,97320.49
2019-01-08T01:15:05.944Z,97326.61
2019-01-08T01:17:12.470Z,97306.05
2019-01-08T01:19:19.148Z,97306.00
2019-01-08T01:21:25.891Z,97295.02
2019-01-08T01:23:32.325Z,97296.59
2019-01-08T01:25:38.894Z,97293.23
2019-01-08T01:27:45.472Z,97281.06
2019-01-08T01:29:51.872Z,97276.88
2019-01-08T01:31:58.675Z,97263.54
2019-01-08T01:34:05.180Z,97266.95
2019-01-08T01:36:11.753Z,97257.80
2019-01-08T01:38:18.676Z,97241.17
2019-01-08T01:40:25.185Z,97247.75
2019-01-08T01:42:31.501Z,97234.84
2019-01-08T01:44:37.879Z,97229.13
2019-01-08T01:46:44.732Z,97229.36
2019-01-08T01:48:51.859Z,97224.76
2019-01-08T01:50:58.070Z,97228.14
2019-01-08T01:53:04.723Z,97229.97
2019-01-08T01:55:11.660Z,97228.09
2019-01-08T01:57:18.084Z,97239.12
2019-01-08T01:59:24.423Z,97226.30
2019-01-08T02:01:30.858Z,97221.48
2019-01-08T02:03:37.706Z,97215.86
2019-01-08T02:05:44.512Z,97215.86
2019-01-08T02:07:52.441Z,97225.98
2019-01-08T02:09:59.003Z,97220.33
2019-01-08T02:12:05.921Z,97216.67
2019-01-08T02:14:12.290Z,97215.77
2019-01-08T02:16:18.604Z,97207.15
2019-01-08T02:18:25.218Z,97198.94
2019-01-08T02:20:31.503Z,97183.28
2019-01-08T02:22:38.110Z,97181.63
2019-01-08T02:24:44.659Z,97178.85
2019-01-08T02:26:51.522Z,97172.38
2019-01-08T02:28:58.224Z,97168.13
2019-01-08T02:31:05.241Z,97171.68
2019-01-08T02:33:11.791Z,97162.73
2019-01-08T02:35:18.668Z,97153.73
2019-01-08T02:37:25.506Z,97156.99
2019-01-08T02:39:32.077Z,97147.77
2019-01-08T02:41:38.941Z,97137.02
2019-01-08T02:43:45.874Z,97118.91
2019-01-08T02:45:52.447Z,97099.93
2019-01-08T02:47:58.888Z,97102.00
2019-01-08T02:50:05.546Z,97084.69
2019-01-08T02:52:13.180Z,97094.33
2019-01-08T02:54:20.121Z,97093.88
2019-01-08T02:56:27.554Z,97093.77
2019-01-08T02:58:34.475Z,97079.97
2019-01-08T03:00:42.239Z,97065.78
2019-01-08T03:02:48.788Z,97082.44
2019-01-08T03:04:55.528Z,97076.20
2019-01-08T03:07:02.950Z,97060.04
2019-01-08T03:09:10.128Z,97051.83
2019-01-08T03:11:17.524Z,97057.55
2019-01-08T03:13:24.408Z,97066.97
2019-01-08T03:15:30.832Z,97041.05
2019-01-08T03:17:37.569Z,97051.42
2019-01-08T03:19:44.409Z,97073.83
2019-01-08T03:21:51.048Z,97075.39
2019-01-08T03:23:57.628Z,97076.98
2019-01-08T03:26:04.518Z,97066.84
2019-01-08T03:28:11.063Z,97065.41
2019-01-08T03:30:17.414Z,97065.41
2019-01-08T03:32:24.136Z,97058.69
2019-01-08T03:34:30.538Z,97048.30
2019-01-08T03:36:38.683Z,97035.98
2019-01-08T03:38:45.313Z,97034.66
2019-01-08T03:40:52.045Z,97034.34
2019-01-08T03:42:58.264Z,97029.66
2019-01-08T03:45:04.924Z,97028.22
2019-01-08T03:47:11.895Z,97027.38
2019-01-08T03:49:18.397Z,97020.37
2019-01-08T03:51:24.985Z,97018.01
2019-01-08T03:53:33.203Z,97009.52
2019-01-08T03:55:39.989Z,97011.70
2019-01-08T03:57:46.464Z,97007.48
2019-01-08T03:59:52.770Z,97011.25
2019-01-08T04:01:59.484Z,97014.44
2019-01-08T04:04:05.899Z,97016.70
2019-01-08T04:06:12.523Z,97021.93
2019-01-08T04:08:19.054Z,97023.95
2019-01-08T04:10:25.948Z,96999.59
2019-01-08T04:12:33.477Z,97001.55
2019-01-08T04:14:40.392Z,96992.73
2019-01-08T04:16:46.960Z,96986.76
2019-01-08T04:18:53.872Z,96994.67
2019-01-08T04:21:01.009Z,96989.38
2019-01-08T04:23:07.662Z,96996.83
2019-01-08T04:25:14.354Z,96992.91
2019-01-08T04:27:21.342Z,96993.19
2019-01-08T04:29:27.852Z,96979.30
2019-01-08T04:31:35.495Z,96982.98
2019-01-08T04:33:41.878Z,96974.38
2019-01-08T04:35:48.313Z,96973.64
2019-01-08T04:37:54.484Z,96972.69
2019-01-08T04:40:00.931Z,96961.47
2019-01-08T04:42:07.840Z,96955.04
2019-01-08T04:44:14.672Z,96956.05
2019-01-08T04:46:21.165Z,96960.52
2019-01-08T04:48:27.942Z,96952.41
2019-01-08T04:50:34.667Z,96946.13
2019-01-08T04:52:41.594Z,96944.94
2019-01-08T04:54:48.146Z,96944.34
2019-01-08T04:56:54.325Z,96935.18
2019-01-08T04:59:00.805Z,96929.83
2019-01-08T05:01:07.096Z,96933.76
2019-01-08T05:03:13.667Z,96938.80
2019-01-08T05:05:20.406Z,96933.41
2019-01-08T05:07:27.300Z,96922.81
2019-01-08T05:09:33.721Z,96922.80
2019-01-08T05:11:40.313Z,96920.66
2019-01-08T05:13:47.312Z,96908.57
2019-01-08T05:15:53.798Z,96908.56
2019-01-08T05:18:00.179Z,96895.19
2019-01-08T05:20:07.038Z,96894.47
2019-01-08T05:22:13.586Z,96922.63
2019-01-08T05:24:20.379Z,96921.48
2019-01-08T05:26:27.189Z,96909.28
2019-01-08T05:28:33.599Z,96902.42
2019-01-08T05:30:40.031Z,96901.78
2019-01-08T05:32:46.463Z,96898.87
2019-01-08T05:34:52.954Z,96895.89
2019-01-08T05:36:59.624Z,96889.25
2019-01-08T05:39:07.256Z,96883.09
2019-01-08T05:41:13.734Z,96871.42
2019-01-08T05:43:20.118Z,96866.56
2019-01-08T05:45:26.979Z,96872.08
2019-01-08T05:47:33.619Z,96857.56
2019-01-08T05:49:40.245Z,96863.39
2019-01-08T05:51:46.655Z,96851.42
2019-01-08T05:53:53.854Z,96855.79
2019-01-08T05:56:00.268Z,96858.41
2019-01-08T05:58:06.883Z,96861.41
2019-01-08T06:00:16.602Z,96853.19
2019-01-08T06:02:21.315Z,96846.72
2019-01-08T06:04:27.724Z,96851.01
2019-01-08T06:06:35.007Z,96852.97
2019-01-08T06:08:42.208Z,96848.18
2019-01-08T06:10:48.693Z,96851.53
2019-01-08T06:12:55.422Z,96841.22
2019-01-08T06:15:01.705Z,96827.73
2019-01-08T06:17:08.288Z,96841.61
2019-01-08T06:19:14.808Z,96839.47
2019-01-08T06:21:21.298Z,96837.42
2019-01-08T06:23:27.614Z,96829.38
2019-01-08T06:25:33.940Z,96823.97
2019-01-08T06:27:40.200Z,96809.58
2019-01-08T06:29:46.544Z,96801.97
2019-01-08T06:31:53.250Z,96797.08
2019-01-08T06:33:59.454Z,96800.94
2019-01-08T06:36:05.932Z,96788.97
2019-01-08T06:38:12.148Z,96786.80
2019-01-08T06:40:18.448Z,96795.61
2019-01-08T06:42:25.039Z,96787.71
2019-01-08T06:44:31.314Z,96791.19
2019-01-08T06:46:42.978Z,96793.21
2019-01-08T06:48:48.385Z,96787.77
2019-01-08T06:50:56.132Z,96790.39
2019-01-08T06:53:02.650Z,96778.70
2019-01-08T06:55:09.886Z,96767.44
2019-01-08T06:57:16.484Z,96765.77
2019-01-08T06:59:23.848Z,96762.48
2019-01-08T07:01:30.164Z,96752.69
2019-01-08T07:03:37.024Z,96748.65
2019-01-08T07:05:43.792Z,96747.86
2019-01-08T07:07:50.067Z,96757.86
2019-01-08T07:09:56.913Z,96739.45
2019-01-08T07:12:05.535Z,96751.95
2019-01-08T07:14:11.843Z,96734.17
2019-01-08T07:16:18.313Z,96740.73
2019-01-08T07:18:24.807Z,96734.02
2019-01-08T07:20:31.768Z,96733.38
2019-01-08T07:22:38.169Z,96735.80
2019-01-08T07:24:44.823Z,96731.25
2019-01-08T07:26:51.668Z,96740.09
2019-01-08T07:29:00.066Z,96747.16
2019-01-08T07:31:06.313Z,96740.25
2019-01-08T07:33:12.952Z,96735.02
2019-01-08T07:35:19.920Z,96732.27
2019-01-08T07:37:26.636Z,96735.21
2019-01-08T07:39:33.606Z,96749.09
2019-01-08T07:41:40.199Z,96747.98
2019-01-08T07:43:46.408Z,96750.76
2019-01-08T07:45:53.761Z,96736.00
2019-01-08T07:48:00.144Z,96733.70
2019-01-08T07:50:07.849Z,96729.49
2019-01-08T07:52:15.203Z,96725.09
2019-01-08T07:54:24.014Z,96731.00
2019-01-08T07:56:30.906Z,96729.58
2019-01-08T07:58:37.440Z,96732.95
2019-01-08T08:00:49.885Z,96727.07
2019-01-08T08:02:52.766Z,96728.88
2019-01-08T08:04:59.251Z,96707.75
2019-01-08T08:07:05.663Z,96702.11
2019-01-08T08:09:12.073Z,96696.52
2019-01-08T08:11:18.621Z,96695.23
2019-01-08T08:13:25.435Z,96688.52
2019-01-08T08:15:32.113Z,96685.63
2019-01-08T08:17:38.800Z,96685.91
2019-01-08T08:19:47.010Z,96685.13
2019-01-08T08:21:53.913Z,96689.50
2019-01-08T08:24:00.327Z,96681.84
2019-01-08T08:26:07.928Z,96698.02
2019-01-08T08:28:15.029Z,96690.25
2019-01-08T08:30:21.691Z,96689.33
2019-01-08T08:32:28.126Z,96694.06
2019-01-08T08:34:34.580Z,96681.45
2019-01-08T08:36:41.225Z,96679.98
2019-01-08T08:38:47.531Z,96684.38
2019-01-08T08:40:54.510Z,96673.52
2019-01-08T08:43:00.818Z,96670.19
2019-01-08T08:45:08.602Z,96658.86
2019-01-08T08:47:16.750Z,96652.36
2019-01-08T08:49:23.348Z,96652.08
2019-01-08T08:51:29.923Z,96647.41
2019-01-08T08:53:36.646Z,96643.48
2019-01-08T08:55:43.181Z,96642.29
2019-01-08T08:57:49.909Z,96639.91
2019-01-08T08:59:57.029Z,96635.31
2019-01-08T09:02:03.892Z,96642.28
2019-01-08T09:04:10.719Z,96637.05
2019-01-08T09:06:20.368Z,96642.02
2019-01-08T09:08:27.009Z,96649.94
2019-01-08T09:10:33.572Z,96631.55
2019-01-08T09:12:40.859Z,96633.48
2019-01-08T09:14:46.984Z,96632.56
2019-01-08T09:16:53.285Z,96630.87
2019-01-08T09:18:59.920Z,96635.06
2019-01-08T09:21:06.829Z,96628.48
2019-01-08T09:23:14.251Z,96643.69
2019-01-08T09:25:20.798Z,96618.56
2019-01-08T09:27:27.216Z,96638.97
2019-01-08T09:29:33.534Z,96621.68
2019-01-08T09:31:43.211Z,96629.11
2019-01-08T09:33:49.809Z,96621.45
2019-01-08T09:35:56.818Z,96620.77
2019-01-08T09:38:03.533Z,96620.06
2019-01-08T09:40:10.425Z,96621.19
2019-01-08T09:42:16.953Z,96614.02
2019-01-08T09:44:24.878Z,96607.26
2019-01-08T09:46:31.521Z,96618.02
2019-01-08T09:48:39.705Z,96612.44
2019-01-08T09:50:47.655Z,96616.97
2019-01-08T09:52:54.153Z,96623.52
2019-01-08T09:55:00.738Z,96614.89
2019-01-08T09:57:07.235Z,96620.97
2019-01-08T09:59:13.848Z,96624.63
2019-01-08T10:01:24.142Z,96618.60
2019-01-08T10:03:29.107Z,96608.44
2019-01-08T10:05:35.652Z,96607.08
2019-01-08T10:07:42.285Z,96606.52
2019-01-08T10:09:49.019Z,96599.44
2019-01-08T10:11:55.704Z,96599.49
2019-01-08T10:14:02.356Z,96597.98
2019-01-08T10:16:09.795Z,96598.78
2019-01-08T10:18:16.394Z,96586.94
2019-01-08T10:20:22.966Z,96592.12
2019-01-08T10:22:29.620Z,96567.91
2019-01-08T10:24:36.151Z,96578.59
2019-01-08T10:26:43.079Z,96579.29
2019-01-08T10:28:49.714Z,96567.38
2019-01-08T10:30:56.966Z,96561.00
2019-01-08T10:33:04.869Z,96563.38
2019-01-08T10:35:11.787Z,96563.02
2019-01-08T10:37:18.957Z,96564.97
2019-01-08T10:39:25.819Z,96574.05
2019-01-08T10:41:32.366Z,96555.23
2019-01-08T10:43:39.047Z,96543.59
2019-01-08T10:45:45.179Z,96554.45
2019-01-08T10:47:51.593Z,96553.50
2019-01-08T10:49:58.984Z,96545.72
2019-01-08T10:52:05.950Z,96537.57
2019-01-08T10:54:13.822Z,96524.69
2019-01-08T10:56:20.686Z,96531.38
2019-01-08T10:58:27.497Z,96525.23
2019-01-08T11:00:34.258Z,96518.37
2019-01-08T11:02:40.686Z,96503.48
2019-01-08T11:04:48.025Z,96487.16
2019-01-08T11:06:54.851Z,96491.25
2019-01-08T11:09:01.502Z,96493.09
2019-01-08T11:11:08.557Z,96513.71
2019-01-08T11:13:14.807Z,96499.65
2019-01-08T11:15:21.577Z,96495.11
2019-01-08T11:17:28.628Z,96481.73
2019-01-08T11:19:35.466Z,96475.53
2019-01-08T11:21:42.308Z,96471.22
2019-01-08T11:23:48.995Z,96474.31
2019-01-08T11:25:58.352Z,96471.61
2019-01-08T11:28:05.162Z,96466.27
2019-01-08T11:30:12.891Z,96458.55
2019-01-08T11:32:19.808Z,96456.31
2019-01-08T11:34:27.398Z,96441.19
2019-01-08T11:36:34.653Z,96442.63
2019-01-08T11:38:41.369Z,96442.41
2019-01-08T11:40:48.835Z,96438.73
2019-01-08T11:42:55.412Z,96444.58
2019-01-08T11:45:02.208Z,96443.91
2019-01-08T11:47:09.285Z,96445.80
2019-01-08T11:49:16.578Z,96431.25
2019-01-08T11:51:23.277Z,96426.10
2019-01-08T11:53:29.996Z,96422.65
2019-01-08T11:55:36.696Z,96419.60
2019-01-08T11:57:43.960Z,96422.34
2019-01-08T11:59:50.693Z,96411.78
2019-01-08T12:01:57.810Z,96406.03
2019-01-08T12:04:04.410Z,96399.23
2019-01-08T12:06:11.732Z,96393.02
2019-01-08T12:08:18.942Z,96386.34
2019-01-08T12:10:25.436Z,96384.91
2019-01-08T12:12:32.570Z,96388.14
2019-01-08T12:14:39.389Z,96378.58
2019-01-08T12:16:46.191Z,96392.34
2019-01-08T12:18:52.653Z,96388.56
2019-01-08T12:20:59.565Z,96390.13
2019-01-08T12:23:06.079Z,96382.12
2019-01-08T12:25:13.190Z,96388.34
2019-01-08T12:27:19.900Z,96391.45
2019-01-08T12:29:26.267Z,96384.72
2019-01-08T12:31:33.595Z,96376.38
2019-01-08T12:33:40.554Z,96368.02
2019-01-08T12:35:47.497Z,96364.44
2019-01-08T12:37:54.154Z,96374.58
2019-01-08T12:40:00.715Z,96373.05
2019-01-08T12:42:08.374Z,96373.86
2019-01-08T12:44:15.047Z,96365.23
2019-01-08T12:46:21.739Z,96356.56
2019-01-08T12:48:28.648Z,96364.53
2019-01-08T12:50:35.386Z,96359.14
2019-01-08T12:52:42.620Z,96364.53
2019-01-08T12:54:49.134Z,96361.84
2019-01-08T12:56:55.483Z,96376.16
2019-01-08T12:59:02.866Z,96374.24
2019-01-08T13:01:09.628Z,96361.34
2019-01-08T13:03:16.760Z,96367.54
2019-01-08T13:05:23.174Z,96376.34
2019-01-08T13:07:29.662Z,96368.83
2019-01-08T13:09:36.254Z,96362.24
2019-01-08T13:11:42.954Z,96356.20
2019-01-08T13:13:49.988Z,96360.45
2019-01-08T13:15:56.691Z,96361.89
2019-01-08T13:18:03.110Z,96368.47
2019-01-08T13:20:09.750Z,96370.71
2019-01-08T13:22:16.193Z,96370.48
2019-01-08T13:24:22.750Z,96371.64
2019-01-08T13:26:29.086Z,96364.16
2019-01-08T13:28:37.055Z,96371.80
2019-01-08T13:30:43.861Z,96367.80
2019-01-08T13:32:50.186Z,96368.38
2019-01-08T13:34:56.656Z,96366.96
2019-01-08T13:37:03.779Z,96369.94
2019-01-08T13:39:12.093Z,96364.11
2019-01-08T13:41:18.519Z,96366.38
2019-01-08T13:43:25.072Z,96369.00
2019-01-08T13:45:32.312Z,96371.27
2019-01-08T13:47:39.156Z,96370.42
2019-01-08T13:49:46.677Z,96369.33
2019-01-08T13:51:54.560Z,96364.09
2019-01-08T13:54:00.927Z,96374.32
2019-01-08T13:56:08.819Z,96366.71
2019-01-08T13:58:16.599Z,96367.54
2019-01-08T14:00:23.578Z,96369.26
2019-01-08T14:02:31.941Z,96368.62
2019-01-08T14:04:40.965Z,96377.90
2019-01-08T14:06:48.066Z,96377.16
2019-01-08T14:08:54.801Z,96373.81
2019-01-08T14:11:02.183Z,96375.86
2019-01-08T14:13:09.974Z,96386.23
2019-01-08T14:15:17.794Z,96411.55
2019-01-08T14:17:25.011Z,96396.95
2019-01-08T14:19:31.395Z,96408.88
2019-01-08T14:21:38.226Z,96394.71
2019-01-08T14:23:44.975Z,96391.89
2019-01-08T14:25:52.325Z,96385.20
2019-01-08T14:27:59.093Z,96387.35
2019-01-08T14:30:06.788Z,96406.47
2019-01-08T14:32:14.262Z,96406.98
2019-01-08T14:34:20.783Z,96392.67
2019-01-08T14:36:27.351Z,96403.86
2019-01-08T14:38:33.686Z,96401.90
2019-01-08T14:40:40.062Z,96397.36
2019-01-08T14:42:46.765Z,96403.08
2019-01-08T14:44:55.110Z,96408.41
2019-01-08T14:47:02.315Z,96415.70
2019-01-08T14:49:08.887Z,96425.30
2019-01-08T14:51:16.193Z,96418.84
2019-01-08T14:53:25.160Z,96413.95
2019-01-08T14:55:32.244Z,96415.64
2019-01-08T14:57:38.893Z,96399.45
2019-01-08T14:59:46.842Z,96407.66
2019-01-08T15:01:55.280Z,96413.82
2019-01-08T15:04:02.318Z,96419.20
2019-01-08T15:06:08.626Z,96411.94
2019-01-08T15:08:15.316Z,96403.63
2019-01-08T15:10:22.576Z,96413.82
2019-01-08T15:12:30.332Z,96419.89
2019-01-08T15:14:37.112Z,96420.95
2019-01-08T15:16:43.536Z,96407.84
2019-01-08T15:18:50.081Z,96403.62
2019-01-08T15:20:56.725Z,96402.44
2019-01-08T15:23:03.295Z,96399.42
2019-01-08T15:25:09.858Z,96429.12
2019-01-08T15:27:16.588Z,96414.92
2019-01-08T15:29:23.203Z,96418.86
2019-01-08T15:31:29.567Z,96420.55
2019-01-08T15:33:35.969Z,96418.41
2019-01-08T15:35:42.710Z,96426.72
2019-01-08T15:37:51.482Z,96424.36
2019-01-08T15:39:58.296Z,96437.55
2019-01-08T15:42:05.160Z,96417.77
2019-01-08T15:44:15.439Z,96430.08
2019-01-08T15:46:19.781Z,96428.38
2019-01-08T15:48:26.449Z,96437.14
2019-01-08T15:50:33.165Z,96440.64
2019-01-08T15:52:40.106Z,96433.48
2019-01-08T15:54:50.980Z,96443.34
2019-01-08T15:56:57.972Z,96443.39
2019-01-08T15:59:04.552Z,96467.17
2019-01-08T16:01:10.919Z,96444.74
2019-01-08T16:03:17.532Z,96457.52
2019-01-08T16:05:24.520Z,96453.54
2019-01-08T16:07:32.169Z,96448.92
2019-01-08T16:09:39.099Z,96449.34
2019-01-08T16:11:46.523Z,96464.92
2019-01-08T16:13:53.852Z,96449.95
2019-01-08T16:16:00.976Z,96433.50
2019-01-08T16:18:08.602Z,96435.45
2019-01-08T16:20:16.929Z,96433.30
2019-01-08T16:22:24.312Z,96429.02
2019-01-08T16:24:31.727Z,96431.73
2019-01-08T16:26:38.425Z,96426.77
2019-01-08T16:28:46.556Z,96422.16
2019-01-08T16:30:53.482Z,96418.14
2019-01-08T16:33:00.306Z,96421.55
2019-01-08T16:35:07.872Z,96416.88
2019-01-08T16:37:16.780Z,96391.94
2019-01-08T16:39:24.327Z,96397.13
2019-01-08T16:41:31.735Z,96393.46
2019-01-08T16:43:38.875Z,96405.71
2019-01-08T16:45:45.799Z,96394.56
2019-01-08T16:47:52.551Z,96388.98
2019-01-08T16:49:59.337Z,96390.09
2019-01-08T16:52:06.940Z,96387.80
2019-01-08T16:54:13.962Z,96380.45
2019-01-08T16:56:20.978Z,96388.47
2019-01-08T16:58:28.055Z,96389.25
2019-01-08T17:00:34.745Z,96389.61
2019-01-08T17:02:42.763Z,96385.06
2019-01-08T17:04:50.682Z,96379.88
2019-01-08T17:06:59.087Z,96376.98
2019-01-08T17:09:07.663Z,96382.94
2019-01-08T17:11:14.870Z,96391.59
2019-01-08T17:13:22.881Z,96390.30
2019-01-08T17:15:29.534Z,96389.69
2019-01-08T17:17:36.655Z,96387.70
2019-01-08T17:19:43.489Z,96378.52
2019-01-08T17:21:52.264Z,96383.89
2019-01-08T17:23:58.753Z,96383.63
2019-01-08T17:26:05.739Z,96384.23
2019-01-08T17:28:12.922Z,96390.30
2019-01-08T17:30:19.987Z,96396.92
2019-01-08T17:32:27.201Z,96393.20
2019-01-08T17:34:34.644Z,96392.38
2019-01-08T17:36:41.464Z,96389.13
2019-01-08T17:38:48.661Z,96375.70
2019-01-08T17:40:55.804Z,96390.12
2019-01-08T17:43:02.895Z,96381.86
2019-01-08T17:45:11.341Z,96396.78
2019-01-08T17:47:18.310Z,96389.25
2019-01-08T17:49:25.396Z,96371.52
2019-01-08T17:51:32.941Z,96388.30
2019-01-08T17:53:39.841Z,96384.05
2019-01-08T17:55:47.549Z,96383.63
2019-01-08T17:58:35.649Z,96375.30
2019-01-08T18:00:43.753Z,96397.51
2019-01-08T18:02:54.334Z,96385.68
2019-01-08T18:05:01.588Z,96388.92
2019-01-08T18:07:08.278Z,96377.63
2019-01-08T18:09:15.186Z,96381.83
2019-01-08T18:11:22.506Z,96379.56
2019-01-08T18:13:30.032Z,96378.32
2019-01-08T18:15:37.231Z,96370.00
2019-01-08T18:17:44.710Z,96388.98
2019-01-08T18:19:51.861Z,96372.88
2019-01-08T18:21:59.492Z,96377.73
2019-01-08T18:24:06.366Z,96378.11
2019-01-08T18:26:14.131Z,96377.07
2019-01-08T18:28:20.949Z,96384.68
2019-01-08T18:30:27.943Z,96390.59
2019-01-08T18:32:34.748Z,96385.15
2019-01-08T18:34:41.948Z,96375.97
2019-01-08T18:36:49.981Z,96380.04
2019-01-08T18:38:57.242Z,96379.89
2019-01-08T18:41:03.855Z,96376.95
2019-01-08T18:43:14.139Z,96375.11
2019-01-08T18:45:19.955Z,96372.97
2019-01-08T18:47:26.524Z,96385.54
2019-01-08T18:49:33.767Z,96379.00
2019-01-08T18:51:40.559Z,96376.00
2019-01-08T18:53:47.334Z,96373.45
2019-01-08T18:55:54.335Z,96379.42
2019-01-08T18:58:01.870Z,96380.81
2019-01-08T19:00:10.787Z,96377.28
2019-01-08T19:02:18.988Z,96367.53
2019-01-08T19:04:26.926Z,96383.08
2019-01-08T19:06:35.744Z,96381.02
2019-01-08T19:09:17.931Z,96384.05
2019-01-08T19:11:24.849Z,96394.88
2019-01-08T19:13:33.429Z,96402.05
2019-01-08T19:15:40.180Z,96394.28
2019-01-08T19:17:47.430Z,96394.28
2019-01-08T19:19:54.820Z,96391.45
2019-01-08T19:22:02.806Z,96401.66
2019-01-08T19:24:10.061Z,96409.51
2019-01-08T19:26:17.503Z,96415.09
2019-01-08T19:28:24.780Z,96409.39
2019-01-08T19:30:32.835Z,96421.15
2019-01-08T19:32:40.958Z,96413.63
2019-01-08T19:34:47.837Z,96415.53
2019-01-08T19:36:54.567Z,96418.19
2019-01-08T19:39:01.940Z,96414.19
2019-01-08T19:41:09.420Z,96419.84
2019-01-08T19:43:16.604Z,96427.88
2019-01-08T19:45:23.304Z,96435.07
2019-01-08T19:47:29.925Z,96433.63
2019-01-08T19:49:37.692Z,96457.22
2019-01-08T19:51:44.384Z,96453.69
2019-01-08T19:53:51.436Z,96470.30
2019-01-08T19:56:01.219Z,96462.01
2019-01-08T19:58:10.794Z,96461.91
2019-01-08T20:00:20.392Z,96461.08
2019-01-08T20:02:27.221Z,96455.92
2019-01-08T20:04:34.659Z,96462.92
2019-01-08T20:06:42.007Z,96463.75
2019-01-08T20:08:50.044Z,96462.06
2019-01-08T20:10:57.197Z,96451.71
2019-01-08T20:13:05.186Z,96455.09
2019-01-08T20:15:12.443Z,96444.07
2019-01-08T20:17:19.431Z,96453.42
2019-01-08T20:19:26.623Z,96450.15
2019-01-08T20:21:33.208Z,96453.40
2019-01-08T20:23:40.010Z,96450.81
2019-01-08T20:25:46.968Z,96443.71
2019-01-08T20:27:53.784Z,96440.98
2019-01-08T20:30:00.580Z,96443.59
2019-01-08T20:32:10.117Z,96431.48
2019-01-08T20:34:17.284Z,96432.41
2019-01-08T20:36:24.394Z,96434.09
2019-01-08T20:38:31.264Z,96435.41
2019-01-08T20:40:37.730Z,96437.09
2019-01-08T20:42:44.095Z,96434.66
2019-01-08T20:44:50.737Z,96427.45
2019-01-08T20:46:57.218Z,96423.78
2019-01-08T20:49:03.706Z,96421.15
2019-01-08T20:51:10.586Z,96411.87
2019-01-08T20:53:16.842Z,96417.17
2019-01-08T20:55:24.208Z,96413.90
2019-01-08T20:57:30.796Z,96415.20
2019-01-08T20:59:37.331Z,96412.42
2019-01-08T21:01:43.942Z,96402.53
2019-01-08T21:03:51.589Z,96401.69
2019-01-08T21:05:58.128Z,96401.43
2019-01-08T21:08:06.078Z,96400.27
2019-01-08T21:10:14.083Z,96397.10
2019-01-08T21:12:21.568Z,96402.52
2019-01-08T21:14:32.284Z,96396.08
2019-01-08T21:16:39.082Z,96390.74
2019-01-08T21:18:45.912Z,96396.24
2019-01-08T21:20:53.668Z,96385.91
2019-01-08T21:23:00.509Z,96380.86
2019-01-08T21:25:08.870Z,96383.58
2019-01-08T21:27:16.300Z,96379.08
2019-01-08T21:29:23.609Z,96376.22
2019-01-08T21:31:30.161Z,96370.13
2019-01-08T21:33:37.038Z,96371.91
2019-01-08T21:35:44.428Z,96372.27
2019-01-08T21:37:51.196Z,96368.95
2019-01-08T21:39:59.506Z,96363.54
2019-01-08T21:42:08.913Z,96362.07
2019-01-08T21:44:15.836Z,96358.23
2019-01-08T21:46:25.501Z,96360.09
2019-01-08T21:48:32.041Z,96367.02
2019-01-08T21:50:38.508Z,96366.55
2019-01-08T21:52:45.286Z,96373.27
2019-01-08T21:54:51.999Z,96365.39
2019-01-08T21:56:58.709Z,96383.52
2019-01-08T21:59:05.440Z,96388.90
2019-01-08T22:01:12.145Z,96389.42
2019-01-08T22:03:18.869Z,96398.95
2019-01-08T22:05:25.153Z,96408.77
2019-01-08T22:07:31.775Z,96398.16
2019-01-08T22:09:38.577Z,96404.16
2019-01-08T22:11:45.133Z,96398.77
2019-01-08T22:13:51.872Z,96406.54
2019-01-08T22:15:58.684Z,96405.52
2019-01-08T22:18:05.533Z,96401.31
2019-01-08T22:20:12.330Z,96398.09
2019-01-08T22:22:22.329Z,96400.80
2019-01-08T22:24:30.128Z,96402.32
2019-01-08T22:26:39.970Z,96407.54
2019-01-08T22:28:48.274Z,96409.39
2019-01-08T22:30:54.519Z,96406.11
2019-01-08T22:33:01.582Z,96407.80
2019-01-08T22:35:08.347Z,96390.87
2019-01-08T22:37:15.935Z,96391.21
2019-01-08T22:39:23.150Z,96398.47
2019-01-08T22:41:29.981Z,96387.59
2019-01-08T22:43:36.878Z,96383.39
2019-01-08T22:45:44.267Z,96380.58
2019-01-08T22:47:51.033Z,96382.45
2019-01-08T22:49:57.700Z,96385.23
2019-01-08T22:52:05.231Z,96399.02
2019-01-08T22:54:11.649Z,96398.42
2019-01-08T22:56:18.080Z,96391.38
2019-01-08T22:58:24.659Z,96396.29
2019-01-08T23:01:01.111Z,96405.66
2019-01-08T23:03:07.977Z,96393.73
2019-01-08T23:05:16.092Z,96411.64
2019-01-08T23:07:23.105Z,96406.99
2019-01-08T23:09:31.274Z,96438.55
2019-01-08T23:11:39.197Z,96433.94
2019-01-08T23:13:48.269Z,96412.26
2019-01-08T23:15:55.765Z,96434.69
2019-01-08T23:18:02.972Z,96431.02
2019-01-08T23:20:09.740Z,96434.25
2019-01-08T23:22:16.637Z,96430.36
2019-01-08T23:24:23.080Z,96428.48
2019-01-08T23:26:29.695Z,96423.75
2019-01-08T23:28:36.818Z,96413.16
2019-01-08T23:30:44.010Z,96413.45
2019-01-08T23:32:50.854Z,96419.31
2019-01-08T23:34:57.446Z,96415.33
2019-01-08T23:37:04.296Z,96404.73
2019-01-08T23:39:11.903Z,96407.70
2019-01-08T23:41:19.003Z,96413.56
2019-01-08T23:43:25.945Z,96404.44
2019-01-08T23:45:32.874Z,96415.55
2019-01-08T23:47:41.081Z,96416.02
2019-01-08T23:49:48.310Z,96413.85
2019-01-08T23:52:21.677Z,96417.58
2019-01-08T23:54:29.284Z,96421.23
2019-01-08T23:56:37.098Z,96405.77
2019-01-08T23:58:43.780Z,96413.23
